Time;durP1;ratioP1;P1;durP2;ratioP2;P2;SDS_P1;SDS_P2;PMS_P1;PMS_P2;Temp;Humidity;BMP_temperature;BMP_pressure;BME280_temperature;BME280_humidity;BME280_pressure;Samples;Min_cycle;Max_cycle;Signal;HPM_P1;HPM_P2
2022/05/03 00:00:57;;;;;;;;;;;;;;;;;;5002322;28;20057;-66
2022/05/03 00:03:28;;;;;;;3.63;2.60;;;;;;;;;;5009157;28;19963;-65
2022/05/03 00:06:01;;;;;;;5.25;2.47;;;;;;;;;;5006128;28;20104;-66
2022/05/03 00:08:34;;;;;;;3.78;2.65;;;;;;;;;;5005000;28;20057;-66
2022/05/03 00:11:07;;;;;;;6.88;2.90;;;;;;;;;;5007715;28;20096;-66
2022/05/03 00:13:38;;;;;;;6.15;2.72;;;;;;;;;;5004332;28;20053;-66
2022/05/03 00:16:09;;;;;;;6.90;3.17;;;;;;;;;;5009350;28;20080;-66
2022/05/03 00:18:37;;;;;;;6.78;3.30;;;;;;;;;;5007269;28;20046;-68
2022/05/03 00:21:09;;;;;;;4.97;3.10;;;;;;;;;;5009395;28;20573;-67
2022/05/03 00:23:37;;;;;;;6.35;3.40;;;;;;;;;;5005279;28;20141;-69
2022/05/03 00:26:10;;;;;;;5.90;3.85;;;;;;;;;;5012965;28;20461;-67
2022/05/03 00:28:39;;;;;;;5.63;3.58;;;;;;;;;;5011711;28;20450;-66
2022/05/03 00:31:08;;;;;;;9.10;4.57;;;;;;;;;;5005328;28;20211;-67
2022/05/03 00:33:37;;;;;;;8.30;4.50;;;;;;;;;;5009647;28;20391;-66
2022/05/03 00:36:09;;;;;;;9.77;4.82;;;;;;;;;;5010704;28;20139;-67
2022/05/03 00:38:38;;;;;;;7.72;4.70;;;;;;;;;;5000252;28;20054;-66
2022/05/03 00:41:10;;;;;;;9.00;4.97;;;;;;;;;;5003116;28;20073;-67
2022/05/03 00:43:41;;;;;;;8.10;4.57;;;;;;;;;;5002634;28;20161;-69
2022/05/03 00:46:11;;;;;;;9.27;4.50;;;;;;;;;;4996689;28;20121;-66
2022/05/03 00:48:55;;;;;;;10.63;4.90;;;;;;;;;;5000297;28;20050;-66
2022/05/03 00:51:27;;;;;;;7.28;4.68;;;;;;;;;;5010646;28;20046;-66
2022/05/03 00:54:03;;;;;;;8.90;4.50;;;;;;;;;;5002247;28;20498;-66
2022/05/03 00:56:34;;;;;;;9.68;4.72;;;;;;;;;;5005975;28;20133;-66
2022/05/03 00:59:08;;;;;;;7.30;4.15;;;;;;;;;;5007555;28;20120;-69
2022/05/03 01:01:41;;;;;;;7.72;4.40;;;;;;;;;;5002014;28;20085;-67
2022/05/03 01:04:13;;;;;;;9.80;4.70;;;;;;;;;;5002455;28;20045;-67
2022/05/03 01:06:51;;;;;;;8.25;4.18;;;;;;;;;;5001710;28;20068;-66
2022/05/03 01:09:23;;;;;;;10.55;4.60;;;;;;;;;;5010179;28;20101;-66
2022/05/03 01:11:55;;;;;;;8.02;4.75;;;;;;;;;;5008351;28;20601;-67
2022/05/03 01:14:32;;;;;;;6.72;4.15;;;;;;;;;;5008248;28;20133;-66
2022/05/03 01:17:03;;;;;;;6.57;3.97;;;;;;;;;;5008903;28;20378;-67
2022/05/03 01:19:38;;;;;;;6.80;4.25;;;;;;;;;;5007970;28;20136;-66
2022/05/03 01:22:10;;;;;;;7.32;4.05;;;;;;;;;;5008979;28;20056;-67
2022/05/03 01:24:47;;;;;;;8.77;4.80;;;;;;;;;;5010130;28;20050;-67
2022/05/03 01:27:27;;;;;;;8.35;4.40;;;;;;;;;;5008202;28;20575;-67
2022/05/03 01:29:59;;;;;;;7.25;4.65;;;;;;;;;;5005105;28;20144;-66
2022/05/03 01:32:27;;;;;;;7.15;4.15;;;;;;;;;;5007032;28;20137;-66
2022/05/03 01:34:56;;;;;;;8.13;4.75;;;;;;;;;;5008573;28;20234;-69
2022/05/03 01:37:37;;;;;;;8.30;4.47;;;;;;;;;;4997993;28;20429;-67
2022/05/03 01:40:06;;;;;;;8.60;4.30;;;;;;;;;;5007240;28;20129;-67
2022/05/03 01:42:46;;;;;;;7.32;4.57;;;;;;;;;;5011057;28;20137;-66
2022/05/03 01:45:22;;;;;;;8.68;4.55;;;;;;;;;;5007738;28;20132;-67
2022/05/03 01:47:56;;;;;;;8.90;4.68;;;;;;;;;;5009625;28;20165;-67
2022/05/03 01:50:28;;;;;;;8.20;5.07;;;;;;;;;;5008841;28;20080;-66
2022/05/03 01:53:05;;;;;;;7.40;4.47;;;;;;;;;;5009322;28;20093;-66
2022/05/03 01:55:51;;;;;;;9.02;4.72;;;;;;;;;;5004085;28;20053;-66
2022/05/03 01:58:22;;;;;;;7.97;4.20;;;;;;;;;;5008970;28;20478;-66
2022/05/03 02:00:57;;;;;;;9.77;4.80;;;;;;;;;;5007272;28;20132;-67
2022/05/03 02:03:30;;;;;;;6.65;4.30;;;;;;;;;;5010122;28;20092;-67
2022/05/03 02:06:02;;;;;;;7.55;4.22;;;;;;;;;;5008547;28;20133;-67
2022/05/03 02:08:40;;;;;;;6.40;3.93;;;;;;;;;;5007161;28;20048;-67
2022/05/03 02:11:19;;;;;;;8.52;4.10;;;;;;;;;;5003768;28;20518;-66
2022/05/03 02:16:45;;;;;;;7.43;3.95;;;;;;;;;;5002770;28;20084;-66
2022/05/03 02:19:24;;;;;;;11.00;4.53;;;;;;;;;;5005479;28;20069;-66
2022/05/03 02:21:54;;;;;;;6.20;4.03;;;;;;;;;;4999700;28;20060;-66
2022/05/03 02:24:27;;;;;;;7.38;3.80;;;;;;;;;;5007108;28;20480;-66
2022/05/03 02:27:00;;;;;;;7.60;4.05;;;;;;;;;;5006179;28;20300;-67
2022/05/03 02:29:32;;;;;;;6.82;4.18;;;;;;;;;;5006672;28;20045;-66
2022/05/03 02:32:05;;;;;;;7.25;4.32;;;;;;;;;;5002790;28;20048;-67
2022/05/03 02:34:36;;;;;;;6.97;4.10;;;;;;;;;;5000554;28;20134;-67
2022/05/03 02:37:12;;;;;;;6.72;4.03;;;;;;;;;;5007341;28;20517;-66
2022/05/03 02:39:45;;;;;;;6.55;4.07;;;;;;;;;;5008230;28;20053;-67
2022/05/03 02:42:14;;;;;;;8.18;4.13;;;;;;;;;;5001970;28;20384;-67
2022/05/03 02:44:43;;;;;;;7.22;4.22;;;;;;;;;;5004191;28;21555;-66
2022/05/03 02:47:19;;;;;;;7.50;4.15;;;;;;;;;;5009974;28;20129;-66
2022/05/03 02:49:52;;;;;;;7.57;4.25;;;;;;;;;;5007313;28;20084;-68
2022/05/03 02:52:35;;;;;;;7.82;4.30;;;;;;;;;;5007424;28;20054;-67
2022/05/03 02:55:06;;;;;;;11.35;5.32;;;;;;;;;;5003746;28;20096;-66
2022/05/03 02:57:41;;;;;;;9.30;4.90;;;;;;;;;;5007415;28;20478;-66
2022/05/03 03:03:16;;;;;;;12.20;5.32;;;;;;;;;;4969964;28;20134;-67
2022/05/03 03:05:45;;;;;;;10.18;5.50;;;;;;;;;;5008200;28;20501;-69
2022/05/03 03:08:13;;;;;;;7.90;4.10;;;;;;;;;;4997940;28;20049;-69
2022/05/03 03:10:45;;;;;;;8.18;5.18;;;;;;;;;;5005594;28;20161;-66
2022/05/03 03:13:16;;;;;;;8.43;4.63;;;;;;;;;;4997073;28;20137;-66
2022/05/03 03:15:45;;;;;;;10.50;4.65;;;;;;;;;;5005477;28;20133;-69
2022/05/03 03:18:16;;;;;;;9.65;4.55;;;;;;;;;;5006278;28;20046;-67
2022/05/03 03:20:45;;;;;;;8.25;4.40;;;;;;;;;;4999892;28;20085;-69
2022/05/03 03:23:15;;;;;;;9.15;4.82;;;;;;;;;;5008621;28;20128;-66
2022/05/03 03:25:44;;;;;;;7.80;4.15;;;;;;;;;;5006606;28;20137;-69
2022/05/03 03:28:13;;;;;;;8.35;4.38;;;;;;;;;;5004744;28;20084;-66
2022/05/03 03:30:42;;;;;;;8.75;4.15;;;;;;;;;;5006609;28;20073;-66
2022/05/03 03:33:11;;;;;;;7.28;4.07;;;;;;;;;;4997491;28;20073;-66
2022/05/03 03:35:41;;;;;;;8.30;4.45;;;;;;;;;;5006555;28;20064;-66
2022/05/03 03:38:11;;;;;;;7.68;4.40;;;;;;;;;;5005734;28;20069;-66
2022/05/03 03:40:40;;;;;;;8.38;4.60;;;;;;;;;;5006259;28;20502;-66
2022/05/03 03:43:08;;;;;;;7.82;4.43;;;;;;;;;;5008476;28;20080;-67
2022/05/03 03:45:37;;;;;;;6.50;4.18;;;;;;;;;;5003791;28;20093;-66
2022/05/03 03:48:06;;;;;;;7.10;4.03;;;;;;;;;;5008450;28;20486;-66
2022/05/03 03:50:36;;;;;;;9.05;4.55;;;;;;;;;;5009409;28;20095;-67
2022/05/03 03:53:07;;;;;;;15.05;4.53;;;;;;;;;;5012585;28;20153;-67
2022/05/03 03:55:35;;;;;;;7.05;3.88;;;;;;;;;;5010810;28;20137;-66
2022/05/03 03:58:04;;;;;;;7.15;4.30;;;;;;;;;;5008713;28;20057;-67
2022/05/03 04:00:32;;;;;;;8.68;4.53;;;;;;;;;;5008694;28;20154;-66
2022/05/03 04:03:02;;;;;;;7.05;4.25;;;;;;;;;;5008112;28;20121;-66
2022/05/03 04:05:31;;;;;;;7.13;3.90;;;;;;;;;;5012421;28;20048;-66
2022/05/03 04:07:59;;;;;;;9.20;4.15;;;;;;;;;;5012107;28;20145;-66
2022/05/03 04:10:29;;;;;;;6.82;3.88;;;;;;;;;;5009429;28;20144;-68
2022/05/03 04:12:57;;;;;;;6.45;3.65;;;;;;;;;;5010738;28;20053;-67
2022/05/03 04:15:26;;;;;;;5.78;3.90;;;;;;;;;;5005748;28;20132;-68
2022/05/03 04:17:54;;;;;;;7.53;4.00;;;;;;;;;;5010462;28;20100;-68
2022/05/03 04:20:23;;;;;;;6.18;3.83;;;;;;;;;;5011413;28;20096;-66
2022/05/03 04:22:51;;;;;;;6.20;3.65;;;;;;;;;;5010978;28;20121;-67
2022/05/03 04:25:19;;;;;;;6.45;3.88;;;;;;;;;;5007562;28;20045;-66
2022/05/03 04:27:49;;;;;;;5.68;3.60;;;;;;;;;;5003395;28;20046;-67
2022/05/03 04:30:18;;;;;;;7.43;3.95;;;;;;;;;;5009043;28;20073;-66
2022/05/03 04:32:46;;;;;;;7.72;3.70;;;;;;;;;;5008365;28;20050;-67
2022/05/03 04:35:15;;;;;;;5.55;3.42;;;;;;;;;;5011338;28;20056;-66
2022/05/03 04:37:43;;;;;;;7.57;3.90;;;;;;;;;;5007143;28;20132;-66
2022/05/03 04:40:11;;;;;;;7.55;3.85;;;;;;;;;;5007668;28;20408;-67
2022/05/03 04:42:45;;;;;;;7.28;3.72;;;;;;;;;;5015676;28;20033;-66
2022/05/03 04:45:15;;;;;;;6.70;3.60;;;;;;;;;;5010275;28;20698;-67
2022/05/03 04:47:43;;;;;;;5.18;3.55;;;;;;;;;;5013953;28;20073;-66
2022/05/03 04:50:12;;;;;;;9.35;3.90;;;;;;;;;;5011462;28;20107;-66
2022/05/03 04:52:40;;;;;;;6.30;3.80;;;;;;;;;;5007334;28;20077;-66
2022/05/03 04:55:09;;;;;;;5.93;3.17;;;;;;;;;;5001980;28;20145;-68
2022/05/03 04:57:37;;;;;;;5.38;3.25;;;;;;;;;;5009986;28;20104;-66
2022/05/03 05:00:06;;;;;;;4.30;2.72;;;;;;;;;;5007654;28;20042;-66
2022/05/03 05:02:37;;;;;;;5.00;3.05;;;;;;;;;;5006211;28;20042;-67
2022/05/03 05:05:06;;;;;;;7.07;3.35;;;;;;;;;;5006096;28;20086;-67
2022/05/03 05:07:34;;;;;;;5.88;2.70;;;;;;;;;;5002590;28;20141;-66
2022/05/03 05:12:49;;;;;;;4.43;2.85;;;;;;;;;;5006271;28;20046;-67
2022/05/03 05:15:17;;;;;;;5.65;3.10;;;;;;;;;;5002977;28;20541;-69
2022/05/03 05:17:47;;;;;;;4.35;2.90;;;;;;;;;;5008915;28;20144;-66
2022/05/03 05:20:15;;;;;;;5.05;3.10;;;;;;;;;;5012009;28;20125;-66
2022/05/03 05:22:43;;;;;;;6.03;3.03;;;;;;;;;;5012965;28;20140;-66
2022/05/03 05:25:32;;;;;;;6.65;3.08;;;;;;;;;;5012495;28;20042;-66
2022/05/03 05:28:01;;;;;;;6.50;3.10;;;;;;;;;;5009042;28;20042;-66
2022/05/03 05:30:29;;;;;;;5.50;3.13;;;;;;;;;;5006257;28;20042;-66
2022/05/03 05:32:59;;;;;;;4.75;2.90;;;;;;;;;;5010898;28;20077;-67
2022/05/03 05:35:27;;;;;;;3.95;2.80;;;;;;;;;;5006283;28;20082;-67
2022/05/03 05:37:55;;;;;;;4.85;3.20;;;;;;;;;;5007452;28;20482;-66
2022/05/03 05:40:24;;;;;;;6.15;3.60;;;;;;;;;;5006772;28;20056;-67
2022/05/03 05:42:52;;;;;;;5.03;3.28;;;;;;;;;;5005755;28;20042;-66
2022/05/03 05:45:20;;;;;;;3.97;2.83;;;;;;;;;;5003385;28;20049;-66
2022/05/03 05:47:49;;;;;;;5.55;3.28;;;;;;;;;;5009356;28;20450;-66
2022/05/03 05:50:18;;;;;;;6.43;3.25;;;;;;;;;;5007207;28;20478;-67
2022/05/03 05:55:47;;;;;;;5.38;3.00;;;;;;;;;;4949896;28;20047;-67
2022/05/03 05:58:15;;;;;;;3.97;2.65;;;;;;;;;;4949685;28;20130;-66
2022/05/03 06:00:44;;;;;;;6.38;2.72;;;;;;;;;;4974920;28;20132;-66
2022/05/03 06:03:14;;;;;;;6.63;2.40;;;;;;;;;;5005377;28;20084;-68
2022/05/03 06:05:44;;;;;;;8.15;3.17;;;;;;;;;;5008068;28;20046;-66
2022/05/03 06:08:13;;;;;;;5.95;3.22;;;;;;;;;;5010035;28;20068;-66
2022/05/03 06:10:41;;;;;;;5.45;2.75;;;;;;;;;;5009917;28;20095;-66
2022/05/03 06:13:10;;;;;;;5.40;3.15;;;;;;;;;;5009181;28;20077;-66
2022/05/03 06:15:38;;;;;;;4.35;2.67;;;;;;;;;;5021149;28;20462;-66
2022/05/03 06:18:08;;;;;;;5.38;2.97;;;;;;;;;;5008990;28;20077;-67
2022/05/03 06:20:36;;;;;;;6.93;3.00;;;;;;;;;;5010024;28;20052;-66
2022/05/03 06:23:12;;;;;;;5.53;3.25;;;;;;;;;;5010246;28;20046;-67
2022/05/03 06:25:41;;;;;;;5.18;2.75;;;;;;;;;;5010284;28;20092;-66
2022/05/03 06:28:10;;;;;;;4.28;3.33;;;;;;;;;;5009666;28;20069;-66
2022/05/03 06:30:40;;;;;;;5.93;3.38;;;;;;;;;;5011352;28;20060;-66
2022/05/03 06:33:08;;;;;;;4.88;2.78;;;;;;;;;;5006673;28;20089;-66
2022/05/03 06:35:37;;;;;;;5.70;2.78;;;;;;;;;;5008883;28;20144;-66
2022/05/03 06:38:06;;;;;;;4.18;2.63;;;;;;;;;;5009862;28;20060;-66
2022/05/03 06:40:36;;;;;;;4.68;2.85;;;;;;;;;;5011209;28;20119;-66
2022/05/03 06:43:05;;;;;;;5.07;2.85;;;;;;;;;;5005966;28;20149;-67
2022/05/03 06:45:34;;;;;;;5.43;3.22;;;;;;;;;;5009572;28;20045;-66
2022/05/03 06:48:06;;;;;;;6.22;3.05;;;;;;;;;;5004180;28;20046;-67
2022/05/03 06:50:34;;;;;;;8.10;3.20;;;;;;;;;;5010240;28;20403;-66
2022/05/03 06:53:03;;;;;;;10.85;3.83;;;;;;;;;;5007377;28;20409;-67
2022/05/03 06:55:31;;;;;;;9.27;4.00;;;;;;;;;;5007854;28;20073;-66
2022/05/03 06:58:01;;;;;;;9.57;4.03;;;;;;;;;;5008441;28;20072;-66
2022/05/03 07:00:29;;;;;;;11.00;4.00;;;;;;;;;;5008963;28;20490;-66
2022/05/03 07:02:58;;;;;;;6.45;3.58;;;;;;;;;;5004427;28;20458;-66
2022/05/03 07:05:27;;;;;;;7.90;4.10;;;;;;;;;;5008584;28;20100;-66
2022/05/03 07:07:56;;;;;;;8.05;3.55;;;;;;;;;;5008416;28;20445;-66
2022/05/03 07:10:24;;;;;;;5.47;3.35;;;;;;;;;;5007721;28;20072;-66
2022/05/03 07:12:53;;;;;;;6.20;3.85;;;;;;;;;;5003862;28;20049;-66
2022/05/03 07:15:24;;;;;;;6.78;4.03;;;;;;;;;;5007395;28;20505;-67
2022/05/03 07:23:26;;;;;;;6.20;3.78;;;;;;;;;;5000203;28;21616;-68
2022/05/03 07:25:54;;;;;;;5.43;3.65;;;;;;;;;;5005340;28;20069;-67
2022/05/03 07:28:23;;;;;;;7.00;4.18;;;;;;;;;;5005849;28;20144;-67
2022/05/03 07:30:53;;;;;;;6.55;3.65;;;;;;;;;;5007799;28;20081;-67
2022/05/03 07:33:22;;;;;;;9.50;3.80;;;;;;;;;;5005558;28;20493;-66
2022/05/03 07:35:51;;;;;;;7.15;4.43;;;;;;;;;;5010294;28;20054;-67
2022/05/03 07:38:19;;;;;;;8.35;4.38;;;;;;;;;;5008460;28;20046;-67
2022/05/03 07:40:48;;;;;;;5.18;3.58;;;;;;;;;;5000982;28;20046;-67
2022/05/03 07:43:16;;;;;;;5.78;3.85;;;;;;;;;;5009116;28;20084;-67
2022/05/03 07:45:45;;;;;;;7.13;3.90;;;;;;;;;;5005935;28;20046;-66
2022/05/03 07:48:15;;;;;;;6.13;3.88;;;;;;;;;;5003340;28;20050;-67
2022/05/03 07:50:45;;;;;;;7.63;3.72;;;;;;;;;;5006456;28;20045;-66
2022/05/03 07:53:15;;;;;;;7.18;3.40;;;;;;;;;;5000664;28;20382;-66
2022/05/03 07:55:45;;;;;;;6.95;3.38;;;;;;;;;;5002364;28;20049;-66
2022/05/03 07:58:15;;;;;;;6.80;3.17;;;;;;;;;;5005500;28;20065;-67
2022/05/03 08:00:44;;;;;;;5.35;3.15;;;;;;;;;;5003477;28;20073;-67
2022/05/03 08:03:14;;;;;;;6.50;3.67;;;;;;;;;;5006736;28;20152;-68
2022/05/03 08:05:44;;;;;;;5.60;2.85;;;;;;;;;;5006142;28;20176;-66
2022/05/03 08:08:13;;;;;;;7.03;3.40;;;;;;;;;;5006640;28;20042;-68
2022/05/03 08:10:41;;;;;;;7.97;3.47;;;;;;;;;;5001608;28;20053;-66
2022/05/03 08:13:10;;;;;;;6.40;3.83;;;;;;;;;;5008124;28;20088;-67
2022/05/03 08:15:38;;;;;;;8.02;3.42;;;;;;;;;;5005878;28;20772;-67
2022/05/03 08:18:07;;;;;;;6.47;3.47;;;;;;;;;;5007528;28;20042;-67
2022/05/03 08:20:36;;;;;;;13.73;3.80;;;;;;;;;;5003832;28;20406;-66
2022/05/03 08:23:07;;;;;;;5.80;3.40;;;;;;;;;;5006042;28;20049;-66
2022/05/03 08:25:37;;;;;;;4.65;3.03;;;;;;;;;;5009099;28;20494;-67
2022/05/03 08:28:06;;;;;;;5.53;3.20;;;;;;;;;;5001949;28;20046;-66
2022/05/03 08:30:36;;;;;;;7.30;3.67;;;;;;;;;;5007877;28;20053;-67
2022/05/03 08:33:04;;;;;;;5.22;3.50;;;;;;;;;;5008138;28;20050;-67
2022/05/03 08:35:36;;;;;;;5.10;3.15;;;;;;;;;;5010603;28;20044;-67
2022/05/03 08:43:43;;;;;;;5.50;2.83;;;;;;;;;;5011968;28;20060;-67
2022/05/03 08:46:13;;;;;;;6.63;3.53;;;;;;;;;;5008885;28;20050;-67
2022/05/03 08:48:42;;;;;;;5.68;3.10;;;;;;;;;;5011719;28;20065;-67
2022/05/03 08:51:13;;;;;;;4.47;2.85;;;;;;;;;;5011945;28;20493;-67
2022/05/03 08:53:43;;;;;;;4.60;2.58;;;;;;;;;;5010727;28;20058;-67
2022/05/03 08:56:11;;;;;;;3.03;2.13;;;;;;;;;;5012181;28;20096;-67
2022/05/03 08:58:42;;;;;;;4.28;2.60;;;;;;;;;;5008923;28;20517;-67
2022/05/03 09:01:11;;;;;;;2.83;2.05;;;;;;;;;;5012587;28;20552;-67
2022/05/03 09:03:40;;;;;;;2.72;2.47;;;;;;;;;;5009419;28;20422;-67
2022/05/03 09:06:09;;;;;;;4.35;2.10;;;;;;;;;;5009301;28;20046;-68
2022/05/03 09:08:39;;;;;;;3.00;1.70;;;;;;;;;;5010835;28;20050;-67
2022/05/03 09:11:16;;;;;;;3.97;2.10;;;;;;;;;;5013485;28;20053;-66
2022/05/03 09:13:45;;;;;;;2.78;1.90;;;;;;;;;;5008425;28;20054;-67
2022/05/03 09:16:15;;;;;;;4.53;2.10;;;;;;;;;;5010028;28;20046;-67
2022/05/03 09:18:45;;;;;;;3.03;1.80;;;;;;;;;;5011580;28;20060;-67
2022/05/03 09:24:13;;;;;;;4.20;2.05;;;;;;;;;;5001286;28;20505;-67
2022/05/03 09:26:43;;;;;;;2.78;1.80;;;;;;;;;;5002399;28;20439;-67
2022/05/03 09:29:14;;;;;;;5.20;2.10;;;;;;;;;;5005592;28;20070;-67
2022/05/03 09:31:46;;;;;;;2.70;2.00;;;;;;;;;;5012644;28;20065;-67
2022/05/03 09:34:23;;;;;;;4.60;1.50;;;;;;;;;;5011817;28;20064;-67
2022/05/03 09:36:54;;;;;;;3.35;2.00;;;;;;;;;;5013068;28;20053;-67
2022/05/03 09:39:37;;;;;;;6.47;2.78;;;;;;;;;;5004917;28;20052;-67
2022/05/03 09:42:09;;;;;;;3.38;2.53;;;;;;;;;;5007845;28;20046;-68
2022/05/03 09:44:40;;;;;;;3.58;2.28;;;;;;;;;;5011455;28;20054;-67
2022/05/03 09:47:12;;;;;;;3.40;2.17;;;;;;;;;;5011346;28;20069;-67
2022/05/03 09:49:42;;;;;;;4.47;2.78;;;;;;;;;;5011719;28;20042;-68
2022/05/03 09:52:27;;;;;;;4.53;3.35;;;;;;;;;;5011176;28;20045;-68
2022/05/03 09:54:59;;;;;;;4.70;2.95;;;;;;;;;;4999818;28;20482;-68
2022/05/03 09:57:31;;;;;;;4.05;2.92;;;;;;;;;;5004383;28;20053;-68
2022/05/03 10:00:01;;;;;;;5.30;3.33;;;;;;;;;;5010138;28;20526;-69
2022/05/03 10:02:32;;;;;;;5.78;3.00;;;;;;;;;;5010941;28;20167;-67
2022/05/03 10:05:01;;;;;;;5.70;3.15;;;;;;;;;;5009017;28;20054;-68
2022/05/03 10:07:30;;;;;;;6.05;3.55;;;;;;;;;;5008900;28;20046;-68
2022/05/03 10:09:58;;;;;;;7.03;3.47;;;;;;;;;;5009210;28;20054;-67
2022/05/03 10:12:27;;;;;;;5.05;3.63;;;;;;;;;;5011638;28;20058;-68
2022/05/03 10:14:57;;;;;;;4.30;3.08;;;;;;;;;;5012112;28;20046;-68
2022/05/03 10:23:20;;;;;;;4.40;2.97;;;;;;;;;;5010185;28;20069;-68
2022/05/03 10:25:52;;;;;;;3.67;2.58;;;;;;;;;;5010680;28;20042;-68
2022/05/03 10:28:21;;;;;;;4.75;3.00;;;;;;;;;;5009121;28;20054;-68
2022/05/03 10:31:08;;;;;;;3.53;2.78;;;;;;;;;;5011687;28;20076;-68
2022/05/03 10:33:42;;;;;;;3.20;2.33;;;;;;;;;;5009843;28;20112;-68
2022/05/03 10:36:29;;;;;;;5.43;3.20;;;;;;;;;;5009694;28;20042;-68
2022/05/03 10:39:05;;;;;;;5.60;3.13;;;;;;;;;;4999712;28;20056;-68
2022/05/03 10:41:33;;;;;;;3.83;2.33;;;;;;;;;;5006321;28;20050;-68
2022/05/03 10:44:27;;;;;;;4.93;2.92;;;;;;;;;;5002192;28;20042;-69
2022/05/03 10:47:03;;;;;;;5.05;2.42;;;;;;;;;;5008536;28;20081;-68
2022/05/03 10:49:33;;;;;;;3.92;2.65;;;;;;;;;;5002929;28;20581;-68
2022/05/03 10:52:01;;;;;;;4.28;2.70;;;;;;;;;;5009757;28;20096;-68
2022/05/03 10:54:29;;;;;;;4.13;2.97;;;;;;;;;;5011078;28;20132;-68
2022/05/03 10:57:07;;;;;;;5.63;3.70;;;;;;;;;;5005909;28;20061;-68
2022/05/03 10:59:48;;;;;;;6.47;3.25;;;;;;;;;;5004984;28;20174;-69
2022/05/03 11:02:19;;;;;;;6.82;4.00;;;;;;;;;;5005748;28;20045;-68
2022/05/03 11:05:05;;;;;;;7.28;4.43;;;;;;;;;;5003750;28;20046;-68
2022/05/03 11:07:37;;;;;;;5.25;3.67;;;;;;;;;;5003150;28;20544;-68
2022/05/03 11:10:31;;;;;;;6.85;4.10;;;;;;;;;;5003208;28;20506;-70
2022/05/03 11:13:00;;;;;;;7.38;4.20;;;;;;;;;;5005715;28;20042;-68
2022/05/03 11:15:28;;;;;;;5.05;3.55;;;;;;;;;;5011042;28;20082;-68
2022/05/03 11:17:57;;;;;;;6.45;4.30;;;;;;;;;;5009849;28;20104;-68
2022/05/03 11:20:25;;;;;;;5.00;3.65;;;;;;;;;;5010467;28;20060;-68
2022/05/03 11:22:55;;;;;;;7.22;3.95;;;;;;;;;;5010402;28;20073;-68
2022/05/03 11:25:25;;;;;;;6.57;4.60;;;;;;;;;;5009027;28;20086;-68
2022/05/03 11:27:54;;;;;;;6.45;4.07;;;;;;;;;;5009160;28;20050;-68
2022/05/03 11:30:22;;;;;;;6.25;4.07;;;;;;;;;;5010129;28;20073;-68
2022/05/03 11:32:57;;;;;;;7.22;4.43;;;;;;;;;;5009603;28;20488;-70
2022/05/03 11:35:25;;;;;;;9.07;4.80;;;;;;;;;;5004064;28;20092;-67
2022/05/03 11:37:56;;;;;;;8.10;5.00;;;;;;;;;;5003442;28;20295;-68
2022/05/03 11:40:26;;;;;;;8.15;4.25;;;;;;;;;;4997286;28;20085;-68
2022/05/03 11:42:55;;;;;;;6.40;4.03;;;;;;;;;;4990039;28;20054;-68
2022/05/03 11:45:24;;;;;;;6.78;4.43;;;;;;;;;;5008402;28;20088;-68
2022/05/03 11:47:53;;;;;;;8.07;4.88;;;;;;;;;;5008627;28;20523;-68
2022/05/03 11:56:07;;;;;;;6.20;3.97;;;;;;;;;;5009835;28;20506;-69
2022/05/03 11:58:39;;;;;;;5.70;3.40;;;;;;;;;;5010199;28;20058;-67
2022/05/03 12:01:15;;;;;;;6.85;4.38;;;;;;;;;;5010179;28;20497;-68
2022/05/03 12:03:48;;;;;;;5.85;4.00;;;;;;;;;;5008708;28;20054;-68
2022/05/03 12:06:18;;;;;;;5.78;3.83;;;;;;;;;;5010719;28;20052;-67
2022/05/03 12:08:50;;;;;;;4.25;2.88;;;;;;;;;;5007937;28;20104;-68
2022/05/03 12:11:21;;;;;;;5.47;3.80;;;;;;;;;;5007292;28;20068;-69
2022/05/03 12:13:50;;;;;;;7.32;4.72;;;;;;;;;;5010855;28;20045;-68
2022/05/03 12:16:22;;;;;;;6.22;4.53;;;;;;;;;;5013874;28;20048;-68
2022/05/03 12:18:53;;;;;;;7.30;4.70;;;;;;;;;;5012358;28;20049;-68
2022/05/03 12:21:26;;;;;;;6.18;3.90;;;;;;;;;;5012893;28;20050;-68
2022/05/03 12:24:01;;;;;;;8.68;4.75;;;;;;;;;;5012775;28;20065;-68
2022/05/03 12:26:37;;;;;;;5.80;3.70;;;;;;;;;;5009394;28;20088;-68
2022/05/03 12:29:07;;;;;;;5.10;3.20;;;;;;;;;;5006055;28;20041;-66
2022/05/03 12:31:37;;;;;;;6.57;3.60;;;;;;;;;;5011049;28;20046;-66
2022/05/03 12:34:07;;;;;;;7.32;4.30;;;;;;;;;;5011867;28;20046;-67
2022/05/03 12:36:37;;;;;;;4.95;3.30;;;;;;;;;;5002725;28;20046;-67
2022/05/03 12:39:12;;;;;;;6.88;4.38;;;;;;;;;;5016103;28;20046;-67
2022/05/03 12:41:55;;;;;;;6.05;3.78;;;;;;;;;;5012487;28;20049;-69
2022/05/03 12:44:27;;;;;;;6.13;3.78;;;;;;;;;;5011653;28;20061;-67
2022/05/03 12:47:03;;;;;;;4.43;3.65;;;;;;;;;;5015235;28;20042;-67
2022/05/03 12:49:32;;;;;;;5.70;3.80;;;;;;;;;;5010273;28;20136;-68
2022/05/03 12:52:01;;;;;;;4.60;3.42;;;;;;;;;;5007297;28;20097;-67
2022/05/03 12:54:32;;;;;;;5.43;3.20;;;;;;;;;;5011095;28;20073;-67
2022/05/03 12:59:54;;;;;;;4.93;2.95;;;;;;;;;;4970194;28;20115;-67
2022/05/03 13:02:23;;;;;;;5.53;3.47;;;;;;;;;;5010673;28;20046;-68
2022/05/03 13:04:52;;;;;;;5.38;3.15;;;;;;;;;;5011379;28;20046;-68
2022/05/03 13:07:20;;;;;;;7.90;5.00;;;;;;;;;;5011941;28;20053;-70
2022/05/03 13:09:51;;;;;;;5.65;4.18;;;;;;;;;;5008019;28;20385;-68
2022/05/03 13:12:20;;;;;;;5.10;3.65;;;;;;;;;;5012442;28;20057;-68
2022/05/03 13:14:48;;;;;;;7.43;4.07;;;;;;;;;;5009230;28;20120;-67
2022/05/03 13:17:17;;;;;;;6.03;4.05;;;;;;;;;;5005075;28;20500;-70
2022/05/03 13:19:46;;;;;;;6.72;4.43;;;;;;;;;;5006805;28;20140;-68
2022/05/03 13:22:15;;;;;;;5.88;4.63;;;;;;;;;;5012626;28;20050;-67
2022/05/03 13:24:43;;;;;;;7.18;4.35;;;;;;;;;;5013879;28;20041;-68
2022/05/03 13:27:13;;;;;;;6.75;4.93;;;;;;;;;;5012516;28;20501;-68
2022/05/03 13:29:42;;;;;;;4.03;2.92;;;;;;;;;;5004859;28;20080;-70
2022/05/03 13:32:11;;;;;;;5.45;2.90;;;;;;;;;;5009662;28;20107;-68
2022/05/03 13:34:39;;;;;;;4.55;2.40;;;;;;;;;;5010633;28;20057;-68
2022/05/03 13:42:42;;;;;;;4.13;2.83;;;;;;;;;;5001973;28;20053;-68
2022/05/03 13:45:11;;;;;;;6.55;3.10;;;;;;;;;;5006727;28;20050;-71
2022/05/03 13:47:40;;;;;;;4.95;3.40;;;;;;;;;;5004880;28;20530;-68
2022/05/03 13:50:10;;;;;;;4.45;2.90;;;;;;;;;;5006583;28;20081;-69
2022/05/03 13:52:39;;;;;;;4.50;3.35;;;;;;;;;;5006590;28;20060;-68
2022/05/03 13:55:08;;;;;;;3.88;3.17;;;;;;;;;;5001187;28;20077;-68
2022/05/03 13:57:37;;;;;;;3.67;2.80;;;;;;;;;;5005194;28;20049;-68
2022/05/03 14:00:10;;;;;;;6.88;4.60;;;;;;;;;;5005170;28;20050;-68
2022/05/03 14:02:39;;;;;;;6.85;3.03;;;;;;;;;;5008460;28;20041;-68
2022/05/03 14:05:08;;;;;;;4.32;2.72;;;;;;;;;;5008563;28;20059;-68
2022/05/03 14:07:36;;;;;;;4.95;2.70;;;;;;;;;;5004156;28;20038;-68
2022/05/03 14:10:06;;;;;;;3.70;2.40;;;;;;;;;;5000501;28;20066;-68
2022/05/03 14:12:34;;;;;;;3.15;1.90;;;;;;;;;;5009087;28;20068;-70
2022/05/03 14:15:03;;;;;;;3.08;2.03;;;;;;;;;;5007950;28;20114;-70
2022/05/03 14:17:33;;;;;;;2.85;2.50;;;;;;;;;;5009223;28;20109;-68
2022/05/03 14:20:03;;;;;;;2.95;2.40;;;;;;;;;;5003465;28;20053;-68
2022/05/03 14:22:31;;;;;;;3.33;2.63;;;;;;;;;;5010156;28;20085;-68
2022/05/03 14:25:00;;;;;;;5.05;1.98;;;;;;;;;;5007665;28;20486;-69
2022/05/03 14:27:28;;;;;;;2.78;2.00;;;;;;;;;;5009349;28;20100;-68
2022/05/03 14:29:57;;;;;;;3.55;2.20;;;;;;;;;;5011878;28;20085;-68
2022/05/03 14:32:25;;;;;;;2.28;1.95;;;;;;;;;;5011636;28;20086;-68
2022/05/03 14:34:55;;;;;;;2.47;2.05;;;;;;;;;;5006069;28;20054;-69
2022/05/03 14:37:24;;;;;;;2.60;1.95;;;;;;;;;;5009219;28;20064;-69
2022/05/03 14:39:52;;;;;;;4.10;2.05;;;;;;;;;;5010837;28;20050;-68
2022/05/03 14:42:21;;;;;;;4.93;2.10;;;;;;;;;;5012417;28;20061;-70
2022/05/03 14:44:50;;;;;;;4.90;2.25;;;;;;;;;;5009904;28;20067;-70
2022/05/03 14:47:19;;;;;;;3.60;1.77;;;;;;;;;;5012229;28;20042;-68
2022/05/03 14:49:48;;;;;;;3.35;2.20;;;;;;;;;;5007110;28;20056;-69
2022/05/03 14:52:19;;;;;;;3.08;1.98;;;;;;;;;;5010004;28;20100;-68
2022/05/03 14:54:48;;;;;;;6.60;2.70;;;;;;;;;;5003228;28;20121;-69
2022/05/03 15:02:54;;;;;;;1.92;1.70;;;;;;;;;;5003673;28;20049;-69
2022/05/03 15:05:24;;;;;;;4.30;2.60;;;;;;;;;;5005753;28;20050;-69
2022/05/03 15:07:55;;;;;;;3.97;2.22;;;;;;;;;;5010369;28;20053;-70
2022/05/03 15:10:28;;;;;;;5.05;2.30;;;;;;;;;;5003007;28;20136;-68
2022/05/03 15:12:58;;;;;;;2.53;1.90;;;;;;;;;;5011496;28;20054;-69
2022/05/03 15:15:27;;;;;;;1.83;1.63;;;;;;;;;;5001924;28;20061;-69
2022/05/03 15:17:56;;;;;;;2.53;2.20;;;;;;;;;;5005186;28;20050;-68
2022/05/03 15:20:27;;;;;;;4.28;2.22;;;;;;;;;;5009788;28;20202;-69
2022/05/03 15:25:45;;;;;;;3.67;1.88;;;;;;;;;;5010992;28;20074;-69
2022/05/03 15:28:14;;;;;;;2.03;1.73;;;;;;;;;;4996969;28;20060;-71
2022/05/03 15:30:44;;;;;;;2.97;2.08;;;;;;;;;;5010296;28;20448;-69
2022/05/03 15:33:13;;;;;;;2.22;1.83;;;;;;;;;;5009068;28;20058;-69
2022/05/03 15:35:42;;;;;;;2.03;1.80;;;;;;;;;;5009555;28;20100;-68
2022/05/03 15:38:12;;;;;;;5.53;1.88;;;;;;;;;;5010740;28;20060;-68
2022/05/03 15:40:41;;;;;;;2.80;1.75;;;;;;;;;;5009454;28;20042;-68
2022/05/03 15:43:10;;;;;;;3.03;2.00;;;;;;;;;;5010483;28;20042;-68
2022/05/03 15:45:38;;;;;;;4.88;1.88;;;;;;;;;;5007592;28;20049;-68
2022/05/03 15:48:08;;;;;;;2.47;1.80;;;;;;;;;;5009637;28;20116;-69
2022/05/03 15:50:36;;;;;;;3.50;2.15;;;;;;;;;;5005209;28;20052;-68
2022/05/03 15:53:05;;;;;;;3.35;1.80;;;;;;;;;;5005792;28;20100;-68
2022/05/03 15:55:34;;;;;;;5.03;1.83;;;;;;;;;;5008221;28;20038;-69
2022/05/03 15:58:03;;;;;;;2.60;1.70;;;;;;;;;;5010195;28;20050;-69